createdAt,value
2019-02-07T00:01:08.724Z,9.33
2019-02-07T00:03:36.301Z,7.50
2019-02-07T00:06:03.919Z,8.70
2019-02-07T00:08:31.495Z,6.63
2019-02-07T00:11:01.569Z,14.47
2019-02-07T00:13:29.234Z,7.30
2019-02-07T00:15:56.816Z,8.20
2019-02-07T00:18:24.396Z,9.30
2019-02-07T00:20:51.985Z,7.97
2019-02-07T00:23:21.487Z,6.80
2019-02-07T00:25:49.820Z,9.80
2019-02-07T00:28:19.357Z,6.97
2019-02-07T00:30:46.928Z,7.20
2019-02-07T00:33:15.268Z,12.93
2019-02-07T00:35:43.041Z,8.00
2019-02-07T00:38:10.665Z,11.00
2019-02-07T00:40:38.236Z,8.98
2019-02-07T00:43:05.804Z,9.40
2019-02-07T00:45:34.323Z,10.33
2019-02-07T00:48:01.912Z,9.60
2019-02-07T00:50:31.168Z,10.80
2019-02-07T00:52:57.104Z,9.40
2019-02-07T00:55:24.724Z,8.33
2019-02-07T00:57:52.300Z,11.07
2019-02-07T01:00:21.388Z,10.73
2019-02-07T01:02:50.939Z,11.27
2019-02-07T01:05:18.521Z,7.73
2019-02-07T01:07:48.016Z,12.10
2019-02-07T01:10:18.476Z,10.40
2019-02-07T01:12:46.047Z,8.80
2019-02-07T01:15:13.631Z,7.90
2019-02-07T01:17:41.214Z,9.10
2019-02-07T01:20:09.742Z,5.20
2019-02-07T01:22:37.328Z,6.60
2019-02-07T01:25:05.689Z,4.47
2019-02-07T01:27:33.302Z,5.57
2019-02-07T01:30:01.818Z,6.60
2019-02-07T01:32:30.164Z,5.30
2019-02-07T01:34:57.748Z,6.40
2019-02-07T01:37:25.320Z,5.60
2019-02-07T01:39:52.892Z,4.13
2019-02-07T01:42:20.472Z,4.30
2019-02-07T01:44:48.093Z,4.90
2019-02-07T01:47:15.681Z,7.37
2019-02-07T01:49:45.180Z,3.50
2019-02-07T01:52:12.766Z,5.30
2019-02-07T01:54:40.344Z,4.50
2019-02-07T01:57:08.694Z,5.10
2019-02-07T01:59:36.264Z,5.43
2019-02-07T02:02:03.886Z,7.23
2019-02-07T02:04:31.472Z,4.73
2019-02-07T02:06:59.059Z,5.70
2019-02-07T02:09:26.644Z,7.50
2019-02-07T02:11:54.227Z,9.20
2019-02-07T02:14:21.890Z,8.00
2019-02-07T02:16:50.391Z,5.13
2019-02-07T02:19:17.997Z,6.37
2019-02-07T02:21:45.579Z,5.97
2019-02-07T02:24:13.153Z,4.30
2019-02-07T02:26:41.660Z,3.73
2019-02-07T02:29:09.240Z,4.40
2019-02-07T02:31:36.820Z,4.20
2019-02-07T02:34:04.401Z,4.57
2019-02-07T02:36:32.992Z,5.23
2019-02-07T02:39:00.576Z,3.80
2019-02-07T02:41:30.041Z,4.17
2019-02-07T02:43:57.704Z,5.80
2019-02-07T02:46:25.281Z,7.03
2019-02-07T02:48:52.856Z,4.77
2019-02-07T02:51:20.437Z,13.63
2019-02-07T02:53:48.767Z,5.40
2019-02-07T02:56:16.333Z,5.23
2019-02-07T02:58:43.918Z,5.97
2019-02-07T03:01:14.407Z,4.17
2019-02-07T03:03:41.976Z,4.30
2019-02-07T03:06:21.411Z,4.90
2019-02-07T03:11:42.904Z,5.57
2019-02-07T03:14:21.272Z,3.43
2019-02-07T03:17:02.402Z,4.97
2019-02-07T03:19:34.893Z,4.60
2019-02-07T03:22:04.233Z,5.60
2019-02-07T03:24:38.156Z,3.60
2019-02-07T03:27:09.300Z,5.20
2019-02-07T03:29:39.712Z,3.43
2019-02-07T03:32:09.233Z,4.47
2019-02-07T03:34:49.654Z,5.77
2019-02-07T03:37:33.943Z,5.23
2019-02-07T03:40:05.032Z,4.10
2019-02-07T03:42:38.328Z,5.10
2019-02-07T03:45:17.592Z,4.40
2019-02-07T03:47:50.836Z,9.63
2019-02-07T03:50:28.337Z,6.70
2019-02-07T03:53:02.588Z,5.90
2019-02-07T03:55:33.028Z,5.27
2019-02-07T03:58:06.337Z,4.23
2019-02-07T04:00:43.834Z,3.60
2019-02-07T04:03:12.319Z,3.70
2019-02-07T04:05:39.898Z,5.67
2019-02-07T04:08:13.116Z,4.13
2019-02-07T04:13:37.480Z,3.40
2019-02-07T04:16:14.689Z,4.30
2019-02-07T04:18:50.372Z,3.17
2019-02-07T04:21:18.811Z,5.10
2019-02-07T04:24:03.915Z,4.87
2019-02-07T04:26:31.788Z,3.40
2019-02-07T04:29:16.228Z,4.80
2019-02-07T04:34:54.785Z,4.93
2019-02-07T04:37:23.276Z,3.17
2019-02-07T04:40:11.936Z,4.10
2019-02-07T04:42:51.946Z,3.10
2019-02-07T04:45:20.498Z,2.97
2019-02-07T04:47:50.464Z,2.80
2019-02-07T04:50:36.896Z,5.23
2019-02-07T04:53:23.184Z,2.80
2019-02-07T04:55:57.348Z,4.23
2019-02-07T04:58:29.894Z,4.07
2019-02-07T05:01:03.186Z,8.17
2019-02-07T05:03:33.604Z,5.73
2019-02-07T05:06:05.744Z,3.83
2019-02-07T05:08:34.236Z,4.90
2019-02-07T05:11:08.316Z,3.77
2019-02-07T05:13:54.697Z,3.70
2019-02-07T05:16:25.247Z,2.70
2019-02-07T05:18:55.379Z,3.03
2019-02-07T05:21:40.509Z,2.90
2019-02-07T05:24:16.801Z,3.60
2019-02-07T05:26:45.220Z,3.20
2019-02-07T05:29:19.437Z,14.27
2019-02-07T05:35:03.075Z,5.32
2019-02-07T05:37:35.321Z,7.73
2019-02-07T05:40:03.392Z,4.97
2019-02-07T05:42:31.945Z,4.13
2019-02-07T05:45:12.304Z,6.37
2019-02-07T05:47:47.529Z,5.10
2019-02-07T05:53:26.371Z,14.80
2019-02-07T05:55:59.646Z,45.73
2019-02-07T05:58:42.109Z,10.90
2019-02-07T06:01:12.536Z,5.97
2019-02-07T06:03:45.682Z,9.90
2019-02-07T06:06:15.750Z,6.27
2019-02-07T06:08:44.897Z,12.40
2019-02-07T06:11:18.041Z,5.00
2019-02-07T06:13:48.945Z,5.70
2019-02-07T06:19:12.609Z,6.25
2019-02-07T06:21:48.086Z,7.30
2019-02-07T06:24:15.977Z,6.73
2019-02-07T06:26:56.456Z,6.53
2019-02-07T06:29:24.032Z,8.53
2019-02-07T06:31:57.200Z,9.00
2019-02-07T06:34:40.585Z,9.40
2019-02-07T06:37:09.940Z,10.87
2019-02-07T06:39:56.337Z,14.47
2019-02-07T06:42:33.857Z,14.13
2019-02-07T06:45:06.125Z,12.53
2019-02-07T06:47:47.480Z,19.43
2019-02-07T06:50:25.016Z,13.63
2019-02-07T06:52:59.068Z,16.20
2019-02-07T06:58:25.834Z,23.33
2019-02-07T07:00:53.409Z,16.90
2019-02-07T07:03:21.618Z,18.70
2019-02-07T07:06:05.732Z,21.07
2019-02-07T07:08:34.943Z,20.80
2019-02-07T07:11:20.259Z,20.07
2019-02-07T07:13:49.759Z,37.30
2019-02-07T07:16:21.978Z,18.03
2019-02-07T07:18:53.219Z,12.63
2019-02-07T07:21:26.270Z,9.63
2019-02-07T07:24:10.631Z,31.83
2019-02-07T07:26:39.095Z,38.40
2019-02-07T07:29:11.424Z,53.17
2019-02-07T07:31:45.339Z,19.20
2019-02-07T07:34:16.313Z,14.20
2019-02-07T07:36:47.783Z,16.80
2019-02-07T07:39:26.188Z,16.77
2019-02-07T07:44:54.925Z,11.15
2019-02-07T07:47:35.654Z,16.90
2019-02-07T07:50:02.309Z,7.73
2019-02-07T07:52:39.868Z,7.00
2019-02-07T07:55:07.948Z,7.40
2019-02-07T07:57:56.321Z,7.70
2019-02-07T08:00:23.898Z,6.33
2019-02-07T08:02:57.120Z,12.30
2019-02-07T08:05:28.492Z,7.60
2019-02-07T08:08:13.880Z,8.43
2019-02-07T08:10:47.153Z,6.10
2019-02-07T08:13:21.367Z,12.23
2019-02-07T08:15:57.408Z,9.63
2019-02-07T08:18:43.791Z,6.70
2019-02-07T08:21:16.850Z,8.53
2019-02-07T08:24:01.239Z,4.67
2019-02-07T08:26:43.774Z,5.50
2019-02-07T08:29:17.982Z,5.77
2019-02-07T08:31:48.972Z,5.60
2019-02-07T08:34:35.509Z,7.47
2019-02-07T08:37:09.640Z,7.73
2019-02-07T08:39:38.905Z,8.80
2019-02-07T08:42:10.086Z,7.60
2019-02-07T08:47:31.777Z,6.65
2019-02-07T08:50:15.292Z,8.00
2019-02-07T08:52:44.216Z,7.13
2019-02-07T08:55:15.344Z,7.37
2019-02-07T08:57:54.741Z,8.70
2019-02-07T09:00:25.072Z,7.10
2019-02-07T09:02:56.274Z,6.33
2019-02-07T09:08:24.737Z,6.28
2019-02-07T09:14:02.540Z,7.18
2019-02-07T09:16:30.881Z,8.77
2019-02-07T09:19:01.394Z,8.00
2019-02-07T09:21:34.809Z,9.63
2019-02-07T09:24:18.222Z,9.07
2019-02-07T09:26:47.755Z,13.30
2019-02-07T09:29:21.045Z,8.63
2019-02-07T09:31:52.248Z,9.60
2019-02-07T09:34:23.853Z,9.57
2019-02-07T09:37:07.601Z,13.30
2019-02-07T09:39:41.093Z,17.77
2019-02-07T09:42:25.385Z,15.90
2019-02-07T09:45:09.685Z,13.20
2019-02-07T09:47:43.720Z,17.87
2019-02-07T09:50:18.065Z,11.90
2019-02-07T09:52:52.344Z,13.77
2019-02-07T09:55:32.629Z,15.50
2019-02-07T09:58:02.896Z,14.17
2019-02-07T10:00:35.436Z,9.30
2019-02-07T10:03:08.209Z,23.17
2019-02-07T10:05:41.306Z,16.40
2019-02-07T10:08:18.855Z,18.23
2019-02-07T10:10:49.160Z,19.03
2019-02-07T10:13:16.865Z,17.73
2019-02-07T10:15:49.984Z,12.10
2019-02-07T10:18:36.268Z,18.27
2019-02-07T10:21:06.506Z,15.50
2019-02-07T10:23:49.200Z,13.73
2019-02-07T10:26:19.264Z,11.13
2019-02-07T10:28:52.588Z,11.37
2019-02-07T10:31:22.763Z,9.37
2019-02-07T10:33:53.018Z,9.33
2019-02-07T10:36:21.712Z,8.97
2019-02-07T10:41:50.179Z,10.25
2019-02-07T10:44:20.368Z,9.57
2019-02-07T10:46:53.520Z,7.90
2019-02-07T10:49:23.714Z,15.70
2019-02-07T10:54:50.416Z,58.90
2019-02-07T10:57:27.912Z,20.10
2019-02-07T11:00:02.041Z,27.03
2019-02-07T11:02:35.280Z,10.17
2019-02-07T11:05:06.333Z,12.33
2019-02-07T11:07:39.556Z,7.60
2019-02-07T11:10:10.345Z,9.97
2019-02-07T11:12:39.664Z,16.30
2019-02-07T11:15:17.187Z,11.20
2019-02-07T11:17:47.556Z,17.37
2019-02-07T11:20:21.667Z,9.83
2019-02-07T11:22:49.427Z,12.97
2019-02-07T11:25:32.688Z,20.33
2019-02-07T11:28:10.615Z,6.20
2019-02-07T11:30:37.375Z,9.30
2019-02-07T11:33:07.864Z,12.23
2019-02-07T11:35:41.719Z,11.80
2019-02-07T11:38:09.273Z,8.40
2019-02-07T11:40:41.200Z,6.07
2019-02-07T11:43:06.929Z,7.23
2019-02-07T11:45:36.049Z,3.00
2019-02-07T11:48:09.226Z,7.73
2019-02-07T11:50:37.395Z,4.47
2019-02-07T11:53:10.672Z,3.90
2019-02-07T11:58:39.076Z,2.95
2019-02-07T12:01:18.387Z,4.53
2019-02-07T12:03:53.388Z,2.70
2019-02-07T12:09:15.289Z,2.30
2019-02-07T12:11:59.627Z,4.37
2019-02-07T12:14:27.191Z,2.73
2019-02-07T12:17:10.356Z,3.07
2019-02-07T12:19:58.615Z,1.60
2019-02-07T12:22:31.851Z,4.20
2019-02-07T12:25:05.052Z,6.23
2019-02-07T12:27:37.426Z,3.30
2019-02-07T12:30:14.274Z,2.10
2019-02-07T12:32:57.672Z,4.50
2019-02-07T12:35:28.872Z,6.80
2019-02-07T12:38:02.141Z,7.40
2019-02-07T12:40:33.357Z,2.10
2019-02-07T12:46:17.784Z,2.28
2019-02-07T12:49:01.108Z,1.80
2019-02-07T12:51:34.440Z,2.70
2019-02-07T12:54:17.660Z,1.43
2019-02-07T12:57:00.868Z,1.80
2019-02-07T12:59:29.365Z,2.67
2019-02-07T13:04:54.877Z,2.55
2019-02-07T13:07:38.252Z,3.63
2019-02-07T13:10:06.760Z,1.83
2019-02-07T13:12:49.230Z,5.17
2019-02-07T13:18:27.040Z,2.28
2019-02-07T13:20:55.553Z,5.37
2019-02-07T13:23:38.949Z,2.50
2019-02-07T13:29:03.688Z,2.80
2019-02-07T13:31:32.583Z,2.70
2019-02-07T13:34:05.365Z,1.90
2019-02-07T13:39:49.152Z,2.50
2019-02-07T13:42:22.408Z,2.40
2019-02-07T13:44:51.763Z,2.40
2019-02-07T13:47:35.240Z,1.60
2019-02-07T13:50:08.534Z,2.97
2019-02-07T13:52:41.828Z,2.70
2019-02-07T13:55:12.966Z,14.40
2019-02-07T13:57:56.177Z,3.20
2019-02-07T14:00:25.504Z,2.55
2019-02-07T14:03:03.868Z,3.90
2019-02-07T14:05:34.940Z,2.03
2019-02-07T14:08:22.287Z,2.03
2019-02-07T14:10:53.653Z,2.27
2019-02-07T14:13:21.224Z,1.70
2019-02-07T14:15:48.805Z,2.00
2019-02-07T14:18:18.376Z,2.03
2019-02-07T14:23:51.841Z,2.85
2019-02-07T14:26:23.260Z,2.53
2019-02-07T14:29:06.924Z,1.87
2019-02-07T14:31:49.370Z,1.60
2019-02-07T14:34:32.726Z,1.73
2019-02-07T14:37:03.984Z,1.60
2019-02-07T14:39:43.346Z,2.33
2019-02-07T14:42:16.706Z,2.17
2019-02-07T14:44:46.844Z,3.80
2019-02-07T14:47:14.531Z,2.70
2019-02-07T14:49:42.105Z,2.43
2019-02-07T14:52:09.771Z,2.87
2019-02-07T14:54:37.280Z,2.00
2019-02-07T14:57:04.848Z,2.70
2019-02-07T14:59:32.413Z,2.53
2019-02-07T15:01:59.978Z,3.20
2019-02-07T15:04:29.565Z,3.53
2019-02-07T15:06:58.120Z,2.30
2019-02-07T15:09:25.692Z,4.67
2019-02-07T15:11:53.281Z,12.60
2019-02-07T15:14:20.848Z,3.57
2019-02-07T15:16:48.422Z,4.00
2019-02-07T15:19:16.761Z,3.80
2019-02-07T15:21:44.332Z,3.90
2019-02-07T15:24:11.897Z,2.70
2019-02-07T15:26:40.400Z,2.90
2019-02-07T15:29:08.729Z,4.77
2019-02-07T15:31:36.290Z,2.60
2019-02-07T15:34:03.865Z,3.00
2019-02-07T15:36:31.427Z,2.50
2019-02-07T15:38:59.000Z,2.27
2019-02-07T15:41:26.612Z,2.43
2019-02-07T15:43:54.184Z,3.57
2019-02-07T15:46:21.760Z,2.77
2019-02-07T15:48:49.332Z,2.50
2019-02-07T15:51:17.671Z,3.53
2019-02-07T15:53:45.236Z,2.40
2019-02-07T15:56:12.813Z,2.37
2019-02-07T15:58:42.032Z,4.00
2019-02-07T16:01:09.608Z,4.07
2019-02-07T16:03:37.167Z,2.33
2019-02-07T16:06:06.400Z,2.20
2019-02-07T16:08:32.360Z,3.67
2019-02-07T16:11:02.609Z,2.33
2019-02-07T16:13:30.179Z,2.53
2019-02-07T16:15:57.744Z,2.13
2019-02-07T16:18:25.307Z,4.40
2019-02-07T16:20:52.885Z,2.53
2019-02-07T16:23:20.454Z,2.03
2019-02-07T16:25:48.784Z,3.80
2019-02-07T16:28:16.348Z,4.47
2019-02-07T16:30:43.970Z,4.13
2019-02-07T16:33:11.533Z,2.37
2019-02-07T16:35:39.109Z,2.40
2019-02-07T16:38:06.685Z,5.13
2019-02-07T16:40:34.262Z,3.33
2019-02-07T16:43:03.744Z,3.37
2019-02-07T16:45:31.316Z,7.60
2019-02-07T16:47:58.958Z,13.83
2019-02-07T16:50:29.312Z,2.97
2019-02-07T16:52:56.879Z,6.03
2019-02-07T16:55:24.501Z,4.30
2019-02-07T16:57:52.064Z,3.73
2019-02-07T17:00:26.556Z,3.53
2019-02-07T17:02:56.091Z,6.50
2019-02-07T17:05:23.669Z,7.10
2019-02-07T17:07:51.240Z,12.67
2019-02-07T17:10:27.452Z,14.00
2019-02-07T17:12:55.025Z,10.23
2019-02-07T17:15:23.511Z,11.60
2019-02-07T17:17:51.129Z,18.60
2019-02-07T17:20:20.509Z,22.00
2019-02-07T17:22:49.120Z,20.57
2019-02-07T17:25:16.721Z,20.00
2019-02-07T17:27:44.297Z,12.57
2019-02-07T17:30:12.664Z,9.33
2019-02-07T17:32:40.224Z,7.37
2019-02-07T17:35:07.840Z,4.73
2019-02-07T17:37:35.416Z,5.03
2019-02-07T17:40:03.024Z,4.30
2019-02-07T17:42:31.523Z,8.73
2019-02-07T17:44:59.099Z,6.97
2019-02-07T17:47:26.684Z,9.53
2019-02-07T17:49:54.252Z,12.40
2019-02-07T17:52:21.961Z,28.33
2019-02-07T17:54:49.540Z,12.60
2019-02-07T17:57:17.109Z,15.87
2019-02-07T17:59:44.676Z,15.63
2019-02-07T18:02:13.024Z,9.63
2019-02-07T18:04:40.596Z,19.23
2019-02-07T18:07:08.173Z,8.50
2019-02-07T18:09:35.785Z,10.43
2019-02-07T18:12:03.360Z,10.97
2019-02-07T18:14:30.978Z,15.87
2019-02-07T18:16:58.853Z,10.20
2019-02-07T18:19:26.417Z,8.63
2019-02-07T18:21:57.146Z,10.83
2019-02-07T18:24:23.271Z,4.80
2019-02-07T18:26:51.772Z,6.80
2019-02-07T18:29:19.344Z,3.07
2019-02-07T18:31:46.920Z,4.33
2019-02-07T18:34:14.882Z,4.57
2019-02-07T18:36:42.461Z,2.53
2019-02-07T18:39:10.100Z,4.13
2019-02-07T18:41:38.720Z,3.53
2019-02-07T18:44:06.291Z,3.93
2019-02-07T18:46:35.773Z,6.83
2019-02-07T18:49:03.348Z,4.17
2019-02-07T18:51:31.137Z,6.10
2019-02-07T18:54:00.644Z,8.17
2019-02-07T18:56:28.220Z,9.03
2019-02-07T18:58:56.709Z,6.90
2019-02-07T19:01:24.319Z,6.63
2019-02-07T19:03:52.833Z,5.37
2019-02-07T19:06:20.420Z,5.57
2019-02-07T19:08:47.987Z,21.20
2019-02-07T19:11:15.572Z,6.90
2019-02-07T19:13:43.246Z,8.50
2019-02-07T19:16:12.691Z,6.40
2019-02-07T19:18:40.388Z,7.10
2019-02-07T19:21:07.956Z,4.90
2019-02-07T19:23:35.537Z,6.43
2019-02-07T19:26:03.461Z,9.43
2019-02-07T19:28:31.231Z,6.70
2019-02-07T19:30:59.729Z,6.77
2019-02-07T19:33:27.574Z,6.03
2019-02-07T19:35:55.152Z,7.50
2019-02-07T19:38:22.791Z,7.17
2019-02-07T19:40:50.372Z,16.60
2019-02-07T19:43:17.941Z,8.90
2019-02-07T19:45:45.521Z,8.23
2019-02-07T19:48:13.869Z,10.23
2019-02-07T19:50:41.447Z,33.20
2019-02-07T19:53:09.017Z,9.63
2019-02-07T19:55:36.641Z,10.50
2019-02-07T19:58:04.222Z,5.77
2019-02-07T20:00:31.788Z,9.63
2019-02-07T20:03:00.125Z,5.80
2019-02-07T20:05:27.705Z,8.73
2019-02-07T20:07:56.248Z,8.43
2019-02-07T20:10:23.832Z,11.10
2019-02-07T20:12:51.450Z,5.80
2019-02-07T20:15:34.787Z,4.50
2019-02-07T20:18:02.629Z,7.17
2019-02-07T20:20:30.867Z,13.63
2019-02-07T20:22:58.585Z,8.40
2019-02-07T20:25:27.217Z,8.60
2019-02-07T20:27:54.850Z,7.53
2019-02-07T20:30:23.985Z,9.87
2019-02-07T20:32:51.579Z,12.90
2019-02-07T20:35:19.160Z,14.07
2019-02-07T20:37:46.885Z,11.80
2019-02-07T20:40:14.477Z,10.23
2019-02-07T20:42:42.060Z,8.57
2019-02-07T20:45:09.634Z,9.30
2019-02-07T20:47:37.252Z,25.40
2019-02-07T20:50:04.836Z,8.50
2019-02-07T20:52:35.590Z,9.00
2019-02-07T20:55:03.216Z,8.73
2019-02-07T20:57:31.810Z,7.70
2019-02-07T21:00:00.204Z,13.00
2019-02-07T21:02:29.707Z,12.13
2019-02-07T21:04:59.244Z,7.80
2019-02-07T21:07:28.788Z,7.90
2019-02-07T21:09:56.356Z,9.33
2019-02-07T21:12:24.889Z,14.73
2019-02-07T21:14:52.465Z,16.00
2019-02-07T21:17:20.104Z,14.43
2019-02-07T21:19:47.870Z,11.50
2019-02-07T21:22:16.407Z,9.33
2019-02-07T21:24:44.251Z,9.67
2019-02-07T21:27:12.592Z,8.93
2019-02-07T21:29:40.165Z,13.37
2019-02-07T21:32:07.738Z,17.23
2019-02-07T21:34:35.321Z,13.57
2019-02-07T21:37:02.916Z,10.00
2019-02-07T21:39:32.404Z,10.63
2019-02-07T21:42:02.001Z,9.17
2019-02-07T21:44:29.579Z,11.60
2019-02-07T21:46:57.243Z,12.47
2019-02-07T21:49:24.901Z,11.83
2019-02-07T21:51:52.473Z,13.70
2019-02-07T21:54:20.991Z,10.67
2019-02-07T21:56:48.564Z,13.20
2019-02-07T21:59:16.905Z,13.70
2019-02-07T22:01:44.476Z,15.40
2019-02-07T22:04:13.987Z,12.47
2019-02-07T22:06:42.324Z,14.30
2019-02-07T22:09:09.900Z,18.30
2019-02-07T22:11:37.479Z,11.27
2019-02-07T22:14:05.067Z,10.67
2019-02-07T22:16:32.675Z,10.13
2019-02-07T22:19:00.276Z,9.70
2019-02-07T22:21:27.852Z,12.80
2019-02-07T22:23:55.417Z,8.93
2019-02-07T22:26:23.996Z,9.87
2019-02-07T22:28:51.555Z,13.73
2019-02-07T22:31:19.128Z,18.43
2019-02-07T22:33:46.716Z,14.40
2019-02-07T22:36:14.329Z,10.47
2019-02-07T22:38:41.896Z,15.07
2019-02-07T22:41:09.473Z,18.03
2019-02-07T22:43:37.039Z,22.00
2019-02-07T22:46:04.613Z,10.07
2019-02-07T22:48:32.189Z,16.43
2019-02-07T22:50:59.760Z,17.73
2019-02-07T22:53:27.376Z,15.43
2019-02-07T22:55:54.951Z,13.80
2019-02-07T22:58:22.524Z,22.63
2019-02-07T23:03:45.404Z,16.30
2019-02-07T23:06:12.980Z,15.50
2019-02-07T23:08:40.551Z,10.63
2019-02-07T23:11:08.120Z,9.37
2019-02-07T23:13:37.611Z,8.80
2019-02-07T23:16:05.191Z,14.47
2019-02-07T23:18:35.468Z,18.67
2019-02-07T23:21:03.101Z,12.07
2019-02-07T23:23:30.680Z,24.73
2019-02-07T23:25:58.254Z,16.87
2019-02-07T23:28:25.827Z,21.83
2019-02-07T23:30:55.312Z,18.53
2019-02-07T23:33:22.891Z,15.93
2019-02-07T23:35:50.467Z,13.97
2019-02-07T23:38:18.082Z,13.67
2019-02-07T23:40:45.655Z,15.63
2019-02-07T23:43:13.228Z,20.03
2019-02-07T23:45:40.816Z,9.90
2019-02-07T23:48:09.143Z,11.40
2019-02-07T23:50:36.712Z,23.10
2019-02-07T23:53:04.312Z,13.60
2019-02-07T23:55:31.904Z,16.77
2019-02-07T23:57:59.522Z,10.27
